Time;durP1;ratioP1;P1;durP2;ratioP2;P2;SDS_P1;SDS_P2;PMS_P1;PMS_P2;Temp;Humidity;BMP_temperature;BMP_pressure;BME280_temperature;BME280_humidity;BME280_pressure;Samples;Min_cycle;Max_cycle;Signal;HPM_P1;HPM_P2
2021/05/14 00:01:13;;;;;;;4.53;1.07;;;14.10;67.40;;;;;;5008477;28;20957;-48
2021/05/14 00:03:40;;;;;;;1.20;1.10;;;14.00;67.50;;;;;;5007525;28;20843;-48
2021/05/14 00:06:06;;;;;;;1.10;1.00;;;14.00;67.30;;;;;;5010604;28;20571;-48
2021/05/14 00:08:33;;;;;;;1.80;0.87;;;14.00;67.30;;;;;;5005132;28;21017;-48
2021/05/14 00:11:00;;;;;;;3.50;1.13;;;14.00;67.40;;;;;;5008373;28;21333;-48
2021/05/14 00:13:27;;;;;;;1.73;1.07;;;14.00;67.60;;;;;;5006185;28;20465;-48
2021/05/14 00:15:54;;;;;;;1.70;1.00;;;14.00;67.90;;;;;;5007672;28;20522;-48
2021/05/14 00:18:21;;;;;;;0.70;0.70;;;14.00;68.10;;;;;;5006646;28;20479;-48
2021/05/14 00:20:48;;;;;;;2.00;1.30;;;14.00;68.40;;;;;;5007987;28;20486;-48
2021/05/14 00:23:14;;;;;;;7.00;1.40;;;14.10;67.80;;;;;;5006271;28;20848;-48
2021/05/14 00:25:42;;;;;;;1.27;0.90;;;14.00;67.70;;;;;;5003945;28;20531;-48
2021/05/14 00:28:09;;;;;;;1.10;1.00;;;14.10;67.60;;;;;;5008155;28;20461;-48
2021/05/14 00:30:38;;;;;;;1.30;1.17;;;14.00;67.60;;;;;;5010263;28;20500;-48
2021/05/14 00:33:05;;;;;;;1.10;1.00;;;14.00;67.30;;;;;;5005778;28;20467;-48
2021/05/14 00:35:31;;;;;;;1.50;0.77;;;14.00;67.00;;;;;;5006374;28;20553;-48
2021/05/14 00:37:58;;;;;;;1.43;0.90;;;14.00;67.00;;;;;;5008218;28;20507;-48
2021/05/14 00:40:25;;;;;;;1.33;0.90;;;14.00;67.00;;;;;;5008186;28;20510;-48
2021/05/14 00:42:52;;;;;;;0.80;0.70;;;14.00;66.90;;;;;;5007113;28;20904;-48
2021/05/14 00:45:18;;;;;;;1.00;0.77;;;14.00;67.10;;;;;;5006162;28;20480;-48
2021/05/14 00:47:45;;;;;;;0.83;0.83;;;13.90;67.00;;;;;;5005226;28;20460;-48
2021/05/14 00:50:12;;;;;;;0.87;0.80;;;13.90;67.10;;;;;;4990825;28;20826;-48
2021/05/14 00:52:40;;;;;;;1.23;1.13;;;13.90;67.20;;;;;;5011439;28;20451;-48
2021/05/14 00:55:07;;;;;;;0.90;0.90;;;13.90;67.40;;;;;;5004153;28;20491;-48
2021/05/14 00:57:36;;;;;;;1.87;1.07;;;13.90;67.30;;;;;;5004624;28;20471;-48
2021/05/14 01:00:05;;;;;;;2.20;1.00;;;13.80;67.30;;;;;;5009029;28;20466;-48
2021/05/14 01:02:32;;;;;;;2.37;1.10;;;13.80;67.40;;;;;;5005799;28;20458;-48
2021/05/14 01:04:58;;;;;;;1.63;0.93;;;13.80;67.40;;;;;;5009366;28;20496;-48
2021/05/14 01:07:25;;;;;;;1.20;1.10;;;13.70;67.50;;;;;;5004962;28;20493;-48
2021/05/14 01:09:52;;;;;;;2.13;1.10;;;13.70;67.50;;;;;;5005447;28;20470;-48
2021/05/14 01:12:19;;;;;;;3.17;1.20;;;13.60;67.50;;;;;;5002573;28;20498;-48
2021/05/14 01:14:46;;;;;;;1.70;1.00;;;13.60;67.60;;;;;;5013692;28;20479;-49
2021/05/14 01:17:13;;;;;;;1.93;1.00;;;13.60;67.50;;;;;;5003404;28;20503;-48
2021/05/14 01:19:39;;;;;;;2.80;0.77;;;13.60;67.60;;;;;;5003862;28;20460;-48
2021/05/14 01:22:07;;;;;;;2.27;0.90;;;13.60;67.60;;;;;;5005865;28;21039;-48
2021/05/14 01:24:33;;;;;;;1.97;1.07;;;13.50;67.30;;;;;;5004584;28;20473;-48
2021/05/14 01:27:01;;;;;;;1.47;1.00;;;13.50;67.50;;;;;;4999812;28;20549;-48
2021/05/14 01:29:28;;;;;;;1.50;1.40;;;13.40;67.60;;;;;;5005911;28;20468;-48
2021/05/14 01:31:55;;;;;;;0.80;0.80;;;13.40;67.80;;;;;;5005419;28;20467;-48
2021/05/14 01:34:23;;;;;;;2.03;1.00;;;13.30;67.90;;;;;;5003680;28;20980;-48
2021/05/14 01:36:50;;;;;;;1.60;1.00;;;13.30;68.20;;;;;;5007428;28;20460;-48
2021/05/14 01:39:22;;;;;;;1.30;1.20;;;13.20;68.30;;;;;;5004816;28;21010;-48
2021/05/14 01:41:50;;;;;;;2.43;0.93;;;13.10;68.70;;;;;;5004313;28;20543;-48
2021/05/14 01:44:17;;;;;;;1.77;1.17;;;13.10;68.80;;;;;;5005304;28;20472;-48
2021/05/14 01:46:46;;;;;;;1.20;0.80;;;13.10;68.70;;;;;;5024661;28;20836;-48
2021/05/14 01:49:14;;;;;;;1.00;0.90;;;13.00;68.80;;;;;;5005397;28;20457;-48
2021/05/14 01:51:41;;;;;;;1.47;0.97;;;13.00;68.90;;;;;;5004710;28;20475;-48
2021/05/14 01:54:07;;;;;;;1.47;1.13;;;13.00;69.00;;;;;;5006484;28;20543;-48
2021/05/14 01:56:34;;;;;;;1.03;0.80;;;13.00;69.20;;;;;;5004821;28;20675;-48
2021/05/14 01:59:03;;;;;;;2.00;1.07;;;13.00;69.20;;;;;;5007530;28;20983;-48
2021/05/14 02:01:29;;;;;;;1.43;0.90;;;13.00;69.20;;;;;;5007789;28;20460;-48
2021/05/14 02:03:58;;;;;;;1.00;0.87;;;12.90;69.10;;;;;;5007316;28;20550;-48
2021/05/14 02:06:26;;;;;;;0.93;0.80;;;12.90;69.00;;;;;;5007921;28;20486;-48
2021/05/14 02:08:52;;;;;;;2.53;1.53;;;12.90;69.00;;;;;;5006016;28;20946;-48
2021/05/14 02:11:19;;;;;;;1.17;0.70;;;12.80;69.20;;;;;;5008769;28;20448;-48
2021/05/14 02:13:46;;;;;;;2.10;1.20;;;12.70;69.30;;;;;;5007506;28;20464;-48
2021/05/14 02:16:13;;;;;;;1.90;0.83;;;12.70;69.40;;;;;;5003501;28;20488;-48
2021/05/14 02:18:40;;;;;;;1.73;1.27;;;12.70;69.60;;;;;;5024235;28;20511;-48
2021/05/14 02:21:07;;;;;;;0.83;0.83;;;12.70;69.60;;;;;;5005631;28;21044;-48
2021/05/14 02:23:35;;;;;;;1.03;0.93;;;12.70;69.30;;;;;;5008459;28;20519;-48
2021/05/14 02:26:02;;;;;;;2.40;1.00;;;12.70;68.90;;;;;;5001622;28;20494;-48
2021/05/14 02:28:29;;;;;;;1.43;1.30;;;12.70;68.60;;;;;;5008906;28;20919;-48
2021/05/14 02:30:56;;;;;;;1.00;0.87;;;12.70;68.50;;;;;;5004573;28;20459;-48
2021/05/14 02:33:24;;;;;;;1.43;1.20;;;12.60;68.60;;;;;;5008301;28;20461;-48
2021/05/14 02:35:50;;;;;;;1.10;0.93;;;12.60;68.50;;;;;;5008416;28;21010;-48
2021/05/14 02:38:18;;;;;;;1.73;1.17;;;12.60;68.40;;;;;;5006523;28;20491;-48
2021/05/14 02:40:44;;;;;;;1.60;0.90;;;12.50;68.40;;;;;;5004285;28;20469;-48
2021/05/14 02:43:11;;;;;;;1.90;0.70;;;12.50;68.90;;;;;;5004658;28;20614;-48
2021/05/14 02:45:39;;;;;;;0.80;0.73;;;12.40;68.80;;;;;;5007802;28;20840;-48
2021/05/14 02:48:06;;;;;;;0.70;0.70;;;12.40;69.20;;;;;;5012083;28;20457;-48
2021/05/14 02:50:33;;;;;;;2.43;0.93;;;12.30;69.30;;;;;;5021882;28;20506;-48
2021/05/14 02:53:00;;;;;;;3.30;1.90;;;12.30;69.40;;;;;;5009455;28;20550;-48
2021/05/14 02:55:27;;;;;;;8.67;4.10;;;12.20;69.70;;;;;;5003681;28;20984;-48
2021/05/14 02:57:53;;;;;;;3.90;2.07;;;12.20;69.90;;;;;;5009539;28;20464;-51
2021/05/14 03:00:25;;;;;;;3.40;1.93;;;12.10;69.90;;;;;;5010824;28;20470;-51
2021/05/14 03:02:52;;;;;;;2.07;1.53;;;12.10;70.00;;;;;;5008558;28;20467;-51
2021/05/14 03:05:19;;;;;;;1.57;1.17;;;12.00;70.20;;;;;;5006500;28;20494;-51
2021/05/14 03:07:46;;;;;;;1.63;1.07;;;12.00;70.40;;;;;;5008454;28;20553;-51
2021/05/14 03:10:12;;;;;;;2.47;1.50;;;12.00;70.60;;;;;;5008300;28;20467;-51
2021/05/14 03:12:39;;;;;;;2.87;1.17;;;12.00;70.60;;;;;;5009962;28;20515;-51
2021/05/14 03:15:07;;;;;;;1.53;1.03;;;12.00;70.70;;;;;;5008342;28;20477;-51
2021/05/14 03:17:34;;;;;;;1.37;1.10;;;11.90;70.80;;;;;;5007989;28;20550;-51
2021/05/14 03:20:05;;;;;;;1.93;0.80;;;11.90;70.90;;;;;;5009570;28;20463;-51
2021/05/14 03:22:32;;;;;;;1.33;1.13;;;12.00;70.50;;;;;;5012864;28;20455;-51
2021/05/14 03:24:59;;;;;;;2.10;1.40;;;12.00;70.30;;;;;;5015154;28;20456;-51
2021/05/14 03:27:26;;;;;;;2.50;1.67;;;11.90;70.40;;;;;;5012156;28;20459;-51
2021/05/14 03:29:53;;;;;;;0.80;0.80;;;11.90;70.60;;;;;;5015005;28;20505;-51
2021/05/14 03:32:19;;;;;;;1.10;1.00;;;11.90;70.70;;;;;;5007561;28;20460;-51
2021/05/14 03:34:46;;;;;;;1.30;1.20;;;11.90;70.60;;;;;;5008876;28;20989;-51
2021/05/14 03:37:13;;;;;;;2.40;1.03;;;11.90;70.80;;;;;;5010272;28;20832;-51
2021/05/14 03:39:44;;;;;;;1.77;0.90;;;11.90;71.10;;;;;;5008943;28;20456;-51
2021/05/14 03:42:15;;;;;;;;;;;;;;;;;;;;;
2021/05/14 03:44:41;;;;;;;1.50;1.20;;;11.90;71.20;;;;;;5008222;28;20875;-51
2021/05/14 03:47:08;;;;;;;1.13;0.97;;;11.80;71.20;;;;;;4991947;28;21001;-51
2021/05/14 03:49:40;;;;;;;1.50;1.40;;;11.80;71.60;;;;;;5010821;28;20548;-51
2021/05/14 03:52:09;;;;;;;1.30;0.83;;;11.70;71.30;;;;;;5035191;28;20483;-51
2021/05/14 03:54:37;;;;;;;1.03;0.90;;;11.80;71.40;;;;;;5006253;28;20457;-51
2021/05/14 03:57:04;;;;;;;2.00;1.03;;;11.80;71.30;;;;;;5005167;28;20452;-51
2021/05/14 03:59:31;;;;;;;2.20;1.33;;;11.70;71.10;;;;;;5003122;28;20824;-51
2021/05/14 04:01:59;;;;;;;27.93;12.03;;;11.70;71.20;;;;;;5006892;28;20456;-51
2021/05/14 04:04:27;;;;;;;7.33;4.67;;;11.70;71.30;;;;;;5021888;28;20447;-51
2021/05/14 04:06:54;;;;;;;2.20;1.93;;;11.70;71.30;;;;;;5011145;28;20579;-51
2021/05/14 04:09:28;;;;;;;1.70;1.43;;;11.70;71.10;;;;;;5010875;28;20835;-51
2021/05/14 04:14:40;;;;;;;1.33;1.20;;;11.80;71.80;;;;;;5006736;28;20912;-51
2021/05/14 04:17:17;;;;;;;1.33;1.20;;;11.80;71.80;;;;;;5006163;28;20459;-51
2021/05/14 04:19:43;;;;;;;1.93;1.10;;;11.70;71.70;;;;;;5011995;28;20895;-51
2021/05/14 04:22:10;;;;;;;4.03;1.20;;;11.80;71.90;;;;;;5012238;28;20453;-51
2021/05/14 04:24:37;;;;;;;1.77;1.03;;;11.80;71.70;;;;;;5009247;28;20460;-51
2021/05/14 04:27:04;;;;;;;1.03;0.90;;;11.80;71.40;;;;;;5024408;28;20777;-51
2021/05/14 04:29:31;;;;;;;1.93;1.40;;;11.80;71.50;;;;;;5005704;28;20551;-51
2021/05/14 04:31:57;;;;;;;1.23;1.13;;;11.80;71.60;;;;;;5009968;28;20456;-51
2021/05/14 04:34:27;;;;;;;1.40;1.20;;;11.80;71.80;;;;;;5012832;28;20462;-51
2021/05/14 04:37:01;;;;;;;1.37;1.17;;;11.80;72.00;;;;;;5009297;28;20496;-51
2021/05/14 04:39:27;;;;;;;1.87;1.33;;;11.80;72.10;;;;;;5010581;28;20457;-51
2021/05/14 04:41:54;;;;;;;1.47;1.30;;;11.80;72.10;;;;;;5009168;28;20456;-51
2021/05/14 04:44:21;;;;;;;1.70;1.60;;;11.80;72.20;;;;;;5013441;28;20532;-51
2021/05/14 04:46:48;;;;;;;1.80;1.50;;;11.80;72.30;;;;;;5009017;28;20625;-51
2021/05/14 04:49:18;;;;;;;1.77;1.40;;;11.90;72.50;;;;;;5013245;28;20937;-51
2021/05/14 04:51:45;;;;;;;2.20;1.10;;;11.90;72.50;;;;;;5013458;28;20463;-51
2021/05/14 04:54:12;;;;;;;1.20;1.10;;;12.00;72.40;;;;;;5009227;28;20486;-51
2021/05/14 04:56:39;;;;;;;1.80;1.10;;;12.00;72.40;;;;;;5008773;28;20460;-51
2021/05/14 04:59:05;;;;;;;1.17;1.07;;;12.00;72.60;;;;;;5007933;28;20606;-51
2021/05/14 05:01:33;;;;;;;3.23;1.50;;;12.10;72.70;;;;;;5007368;28;20467;-51
2021/05/14 05:04:00;;;;;;;1.93;1.33;;;12.10;72.70;;;;;;4990567;28;20460;-51
2021/05/14 05:06:27;;;;;;;1.73;1.63;;;12.20;72.60;;;;;;5007924;28;20484;-51
2021/05/14 05:08:53;;;;;;;2.27;1.73;;;12.20;72.50;;;;;;5006496;28;20448;-51
2021/05/14 05:11:20;;;;;;;1.23;1.13;;;12.30;72.40;;;;;;5003303;28;20461;-51
2021/05/14 05:13:49;;;;;;;1.50;1.07;;;12.30;72.20;;;;;;5008155;28;20467;-51
2021/05/14 05:16:16;;;;;;;1.57;1.47;;;12.40;72.40;;;;;;5003117;28;20848;-51
2021/05/14 05:18:43;;;;;;;2.27;1.50;;;12.50;72.00;;;;;;5007696;28;20475;-51
2021/05/14 05:21:10;;;;;;;1.30;1.20;;;12.60;72.00;;;;;;5006573;28;20468;-51
2021/05/14 05:23:37;;;;;;;2.50;1.43;;;12.60;72.30;;;;;;5003915;28;20465;-51
2021/05/14 05:26:03;;;;;;;1.37;1.27;;;12.70;72.30;;;;;;5004336;28;20484;-51
2021/05/14 05:28:32;;;;;;;1.47;1.37;;;12.70;72.10;;;;;;5003345;28;20468;-51
2021/05/14 05:30:59;;;;;;;1.40;1.30;;;12.70;71.80;;;;;;5006127;28;20504;-51
2021/05/14 05:33:26;;;;;;;1.97;1.40;;;12.70;71.70;;;;;;5004895;28;20506;-51
2021/05/14 05:35:54;;;;;;;1.47;1.37;;;12.70;71.90;;;;;;5004252;28;20579;-51
2021/05/14 05:38:24;;;;;;;2.67;2.23;;;12.70;72.00;;;;;;5007077;28;20460;-51
2021/05/14 05:40:51;;;;;;;4.07;1.80;;;12.90;72.10;;;;;;5009793;28;20469;-51
2021/05/14 05:43:17;;;;;;;1.33;1.23;;;12.90;71.60;;;;;;5009355;28;20459;-51
2021/05/14 05:45:46;;;;;;;1.70;1.60;;;13.00;70.40;;;;;;5023669;28;20555;-51
2021/05/14 05:48:13;;;;;;;3.70;1.77;;;13.00;70.50;;;;;;5006249;28;20544;-51
2021/05/14 05:50:43;;;;;;;2.57;1.60;;;13.10;70.70;;;;;;5009356;28;20630;-51
2021/05/14 05:53:11;;;;;;;1.30;1.20;;;13.00;70.80;;;;;;5004115;28;20889;-51
2021/05/14 05:55:38;;;;;;;1.90;1.40;;;13.00;70.90;;;;;;5007730;28;20914;-51
2021/05/14 05:58:06;;;;;;;3.37;1.80;;;13.10;71.10;;;;;;5001303;28;20548;-51
2021/05/14 06:00:33;;;;;;;1.63;1.53;;;13.10;71.30;;;;;;5001783;28;20982;-51
2021/05/14 06:03:02;;;;;;;1.50;1.40;;;13.20;71.20;;;;;;5004155;28;20741;-51
2021/05/14 06:05:29;;;;;;;2.10;1.70;;;13.30;71.40;;;;;;4999674;28;20472;-51
2021/05/14 06:07:56;;;;;;;2.00;1.40;;;13.30;70.50;;;;;;5001825;28;20492;-51
2021/05/14 06:10:23;;;;;;;3.27;1.30;;;13.40;70.10;;;;;;5005697;28;20543;-51
2021/05/14 06:12:51;;;;;;;1.33;1.20;;;13.40;70.20;;;;;;5005118;28;20561;-51
2021/05/14 06:15:18;;;;;;;2.47;1.47;;;13.40;70.40;;;;;;5004747;28;20480;-51
2021/05/14 06:17:45;;;;;;;1.63;1.53;;;13.40;70.60;;;;;;5005826;28;20477;-51
2021/05/14 06:20:15;;;;;;;1.70;1.47;;;13.40;70.70;;;;;;5005596;28;20460;-51
2021/05/14 06:22:43;;;;;;;1.63;1.40;;;13.50;70.80;;;;;;5003228;28;20459;-51
2021/05/14 06:25:10;;;;;;;3.60;1.60;;;13.50;70.70;;;;;;5000587;28;20510;-51
2021/05/14 06:27:37;;;;;;;2.03;1.70;;;13.50;70.80;;;;;;5006824;28;20488;-51
2021/05/14 06:30:05;;;;;;;2.70;1.30;;;13.60;70.60;;;;;;5002886;28;20448;-52
2021/05/14 06:32:33;;;;;;;1.67;1.53;;;13.60;70.70;;;;;;5002592;28;20548;-51
2021/05/14 06:35:00;;;;;;;1.87;1.07;;;13.60;70.30;;;;;;5005470;28;20452;-48
2021/05/14 06:37:30;;;;;;;2.10;1.37;;;13.60;70.20;;;;;;5005637;28;20945;-47
2021/05/14 06:39:57;;;;;;;1.60;1.50;;;13.60;70.50;;;;;;5004930;28;21053;-47
2021/05/14 06:42:24;;;;;;;1.50;1.17;;;13.70;70.70;;;;;;5002245;28;20492;-46
2021/05/14 06:44:53;;;;;;;4.90;3.20;;;13.80;70.60;;;;;;5006208;28;20455;-47
2021/05/14 06:47:20;;;;;;;2.83;2.17;;;13.90;70.60;;;;;;5002302;28;20487;-47
2021/05/14 06:49:47;;;;;;;2.73;1.90;;;14.10;69.90;;;;;;5008172;28;20488;-47
2021/05/14 06:52:14;;;;;;;2.57;1.67;;;14.20;69.90;;;;;;5023136;28;20456;-47
2021/05/14 06:54:43;;;;;;;1.27;1.17;;;14.30;69.80;;;;;;5006351;28;20547;-47
2021/05/14 06:57:10;;;;;;;2.33;1.70;;;14.40;69.10;;;;;;5001226;28;20612;-47
2021/05/14 06:59:37;;;;;;;2.73;1.70;;;14.50;69.00;;;;;;5006094;28;20488;-47
2021/05/14 07:02:03;;;;;;;4.10;1.67;;;14.70;68.50;;;;;;5008018;28;20456;-47
2021/05/14 07:04:30;;;;;;;1.73;1.63;;;14.80;68.10;;;;;;5005167;28;20456;-47
2021/05/14 07:06:57;;;;;;;5.53;1.87;;;14.90;68.00;;;;;;5002287;28;20494;-47
2021/05/14 07:09:24;;;;;;;1.90;1.50;;;15.00;68.10;;;;;;4999737;28;20490;-47
2021/05/14 07:11:51;;;;;;;4.27;3.27;;;15.00;68.10;;;;;;5002408;28;20474;-47
2021/05/14 07:14:19;;;;;;;1.60;1.50;;;15.10;68.00;;;;;;5004208;28;20724;-47
2021/05/14 07:16:46;;;;;;;1.70;1.60;;;15.20;67.90;;;;;;4996402;28;20487;-47
2021/05/14 07:19:14;;;;;;;1.93;1.70;;;15.40;67.40;;;;;;5002773;28;21000;-47
2021/05/14 07:21:42;;;;;;;2.63;1.33;;;15.50;67.30;;;;;;5004885;28;20844;-47
2021/05/14 07:24:09;;;;;;;1.80;1.60;;;15.60;66.60;;;;;;5001387;28;20468;-47
2021/05/14 07:26:37;;;;;;;1.50;1.40;;;15.80;66.30;;;;;;5004649;28;20496;-47
2021/05/14 07:29:18;;;;;;;2.33;1.80;;;15.90;65.20;;;;;;5017935;28;20502;-47
2021/05/14 07:31:44;;;;;;;2.20;1.70;;;15.90;65.50;;;;;;5007849;28;20547;-47
2021/05/14 07:34:12;;;;;;;2.77;1.50;;;15.90;65.90;;;;;;5009503;28;20455;-47
2021/05/14 07:36:58;;;;;;;1.90;1.73;;;15.90;66.10;;;;;;5011110;28;20448;-47
2021/05/14 07:39:26;;;;;;;2.53;1.80;;;16.00;66.40;;;;;;5010641;28;20469;-47
2021/05/14 07:41:53;;;;;;;2.60;1.73;;;16.00;66.30;;;;;;5011347;28;20967;-47
2021/05/14 07:44:25;;;;;;;1.93;1.70;;;16.10;66.50;;;;;;4996482;28;20462;-47
2021/05/14 07:46:51;;;;;;;3.90;1.77;;;16.20;65.30;;;;;;5002720;28;20483;-47
2021/05/14 07:49:19;;;;;;;1.70;1.60;;;16.20;65.70;;;;;;5024726;28;20778;-47
2021/05/14 07:51:46;;;;;;;2.50;2.30;;;16.20;66.00;;;;;;5021771;28;20460;-47
2021/05/14 07:54:13;;;;;;;2.83;1.53;;;16.30;65.80;;;;;;5004202;28;20457;-47
2021/05/14 07:56:39;;;;;;;3.20;3.00;;;16.30;65.90;;;;;;5005072;28;20491;-47
2021/05/14 07:59:14;;;;;;;2.77;2.20;;;16.40;65.90;;;;;;5011387;28;20467;-47
2021/05/14 08:01:44;;;;;;;14.80;3.27;;;16.40;66.20;;;;;;5022531;28;20860;-46
2021/05/14 08:04:11;;;;;;;3.77;2.00;;;16.50;65.90;;;;;;5011737;28;20462;-46
2021/05/14 08:06:38;;;;;;;2.27;1.70;;;16.60;65.30;;;;;;5008900;28;20997;-47
2021/05/14 08:09:08;;;;;;;3.97;1.90;;;16.70;65.00;;;;;;5012163;28;20456;-47
2021/05/14 08:11:34;;;;;;;2.33;2.03;;;16.70;64.40;;;;;;5007740;28;20808;-47
2021/05/14 08:14:02;;;;;;;7.77;1.53;;;16.80;64.00;;;;;;5007871;28;20448;-46
2021/05/14 08:16:29;;;;;;;2.80;1.60;;;16.90;63.70;;;;;;5009565;28;20473;-46
2021/05/14 08:18:56;;;;;;;3.07;1.70;;;17.10;63.50;;;;;;5010105;28;20543;-46
2021/05/14 08:21:23;;;;;;;2.13;1.40;;;17.20;62.10;;;;;;5007288;28;20835;-47
2021/05/14 08:23:50;;;;;;;2.63;2.17;;;17.30;62.50;;;;;;5006557;28;20469;-46
2021/05/14 08:26:17;;;;;;;3.57;1.87;;;17.30;62.70;;;;;;5006660;28;20539;-47
2021/05/14 08:28:44;;;;;;;2.00;1.80;;;17.40;62.60;;;;;;5007010;28;21013;-48
2021/05/14 08:31:11;;;;;;;1.67;1.43;;;17.50;61.80;;;;;;5006272;28;20523;-48
2021/05/14 08:33:38;;;;;;;2.17;1.30;;;17.60;60.20;;;;;;5004585;28;21016;-47
2021/05/14 08:36:05;;;;;;;2.70;1.67;;;17.60;61.10;;;;;;5002154;28;20457;-47
2021/05/14 08:38:32;;;;;;;2.20;1.90;;;17.60;61.90;;;;;;5004068;28;20456;-48
2021/05/14 08:41:06;;;;;;;3.77;1.90;;;17.70;61.80;;;;;;5007523;28;20448;-48
2021/05/14 08:43:34;;;;;;;1.33;1.17;;;17.80;61.90;;;;;;5042322;28;20510;-47
2021/05/14 08:46:02;;;;;;;2.13;1.60;;;17.90;61.40;;;;;;5000854;28;20599;-48
2021/05/14 08:48:31;;;;;;;3.13;1.77;;;18.20;60.60;;;;;;5009593;28;20497;-47
2021/05/14 08:51:07;;;;;;;2.00;1.60;;;18.40;58.90;;;;;;5010844;28;20548;-47
2021/05/14 08:53:38;;;;;;;2.83;1.50;;;18.40;58.20;;;;;;5011643;28;20455;-48
2021/05/14 08:56:05;;;;;;;2.50;1.73;;;18.50;58.60;;;;;;5006126;28;20469;-48
2021/05/14 08:58:32;;;;;;;2.77;1.60;;;18.60;59.10;;;;;;5008993;28;20524;-48
2021/05/14 09:01:01;;;;;;;1.93;1.73;;;18.60;58.30;;;;;;5009386;28;20455;-48
2021/05/14 09:03:28;;;;;;;2.07;1.40;;;18.70;57.80;;;;;;5010006;28;20460;-48
2021/05/14 09:05:56;;;;;;;2.47;1.67;;;18.90;58.10;;;;;;5009551;28;20456;-48
2021/05/14 09:08:30;;;;;;;1182.13;144.97;;;19.10;57.30;;;;;;5006100;28;20492;-48
2021/05/14 09:10:58;;;;;;;98.47;14.27;;;19.30;57.10;;;;;;5015286;28;20487;-48
2021/05/14 09:13:38;;;;;;;17.53;3.27;;;19.50;56.50;;;;;;5007396;28;20468;-48
2021/05/14 09:16:06;;;;;;;26.87;6.23;;;19.90;55.40;;;;;;5007348;28;20468;-48
2021/05/14 09:18:33;;;;;;;6.80;1.37;;;20.40;54.20;;;;;;5005242;28;20961;-48
2021/05/14 09:21:01;;;;;;;1.57;1.17;;;20.80;52.80;;;;;;5006322;28;20511;-48
2021/05/14 09:23:32;;;;;;;2.10;1.20;;;21.20;51.00;;;;;;5009174;28;20499;-47
2021/05/14 09:26:15;;;;;;;18.83;3.03;;;21.50;50.90;;;;;;5009010;28;20495;-47
2021/05/14 09:28:44;;;;;;;16.90;3.10;;;21.40;50.10;;;;;;5010245;28;20563;-47
2021/05/14 09:31:28;;;;;;;1.13;1.00;;;21.10;49.80;;;;;;5007834;28;20468;-47
2021/05/14 09:33:55;;;;;;;5.10;1.70;;;20.80;50.70;;;;;;5007734;28;20484;-48
2021/05/14 09:36:26;;;;;;;1.23;1.10;;;20.50;51.50;;;;;;5008936;28;20453;-47
2021/05/14 09:38:57;;;;;;;3.97;1.40;;;20.20;52.40;;;;;;5024414;28;20459;-47
2021/05/14 09:41:36;;;;;;;1.60;0.80;;;19.90;53.00;;;;;;5007205;28;21388;-47
2021/05/14 09:44:15;;;;;;;1.23;0.50;;;19.80;53.10;;;;;;5008412;28;20452;-47
2021/05/14 09:46:47;;;;;;;0.73;0.70;;;20.50;52.50;;;;;;5009434;28;20976;-47
2021/05/14 09:49:20;;;;;;;5.97;1.50;;;21.40;48.40;;;;;;5009614;28;20956;-47
2021/05/14 09:51:56;;;;;;;5.43;0.87;;;22.30;46.30;;;;;;5003844;28;20502;-47
2021/05/14 09:54:34;;;;;;;1.13;0.77;;;23.10;45.60;;;;;;5005461;28;20453;-47
2021/05/14 09:59:58;;;;;;;9.37;1.60;;;24.50;43.40;;;;;;5009611;28;20459;-47
2021/05/14 10:02:30;;;;;;;1.67;0.60;;;25.00;42.70;;;;;;5004693;28;20525;-47
2021/05/14 10:04:59;;;;;;;3.90;1.60;;;25.00;42.40;;;;;;5007909;28;20991;-47
2021/05/14 10:07:30;;;;;;;1.40;1.07;;;24.90;42.40;;;;;;5030298;28;20518;-47
2021/05/14 10:10:03;;;;;;;1.37;0.80;;;24.80;42.10;;;;;;5009237;28;20451;-46
2021/05/14 10:12:29;;;;;;;27.43;5.50;;;24.40;42.60;;;;;;5002992;28;20949;-47
2021/05/14 10:14:58;;;;;;;1.03;0.60;;;24.00;43.00;;;;;;5021815;28;20487;-47
2021/05/14 10:17:25;;;;;;;0.90;0.50;;;23.60;43.70;;;;;;5006392;28;20512;-47
2021/05/14 10:20:01;;;;;;;50.30;8.47;;;23.40;44.30;;;;;;5009347;28;20448;-47
2021/05/14 10:22:30;;;;;;;1.73;0.70;;;23.00;45.40;;;;;;5006093;28;20554;-46
2021/05/14 10:25:00;;;;;;;11.60;1.57;;;22.90;45.30;;;;;;5006148;28;20482;-47
2021/05/14 10:27:42;;;;;;;0.93;0.60;;;22.70;44.50;;;;;;5008703;28;20496;-46
2021/05/14 10:30:09;;;;;;;11.63;2.23;;;22.40;44.50;;;;;;5005971;28;20493;-46
2021/05/14 10:32:45;;;;;;;1.33;0.83;;;22.30;45.80;;;;;;5005281;28;21224;-46
2021/05/14 10:35:26;;;;;;;1.40;0.53;;;22.30;45.00;;;;;;5004129;28;20463;-47
2021/05/14 10:38:04;;;;;;;53.20;8.87;;;22.20;45.30;;;;;;5020885;28;20873;-49
2021/05/14 10:40:34;;;;;;;8.13;2.40;;;22.00;46.50;;;;;;5003376;28;20479;-49
2021/05/14 10:43:06;;;;;;;0.70;0.50;;;22.00;46.00;;;;;;5022963;28;20476;-49
2021/05/14 10:45:48;;;;;;;1.47;0.67;;;22.00;45.90;;;;;;5021930;28;20592;-50
2021/05/14 10:48:18;;;;;;;32.20;3.97;;;21.90;45.30;;;;;;5007435;28;20561;-50
2021/05/14 10:50:52;;;;;;;5.90;1.17;;;21.80;46.30;;;;;;5005773;28;20801;-50
2021/05/14 10:53:26;;;;;;;7.07;1.10;;;21.70;45.90;;;;;;4999410;28;20544;-50
2021/05/14 10:55:54;;;;;;;0.90;0.60;;;21.50;46.00;;;;;;5006820;28;20969;-49
2021/05/14 10:58:40;;;;;;;27.87;5.27;;;21.40;45.90;;;;;;5005338;28;20849;-49
2021/05/14 11:01:25;;;;;;;4.93;0.87;;;21.30;47.00;;;;;;5006555;28;20871;-48
2021/05/14 11:03:52;;;;;;;1.20;0.50;;;21.30;46.80;;;;;;5003974;28;20982;-48
2021/05/14 11:06:19;;;;;;;0.80;0.53;;;21.20;46.40;;;;;;5001198;28;21064;-48
2021/05/14 11:09:12;;;;;;;0.80;0.50;;;21.00;45.30;;;;;;5014610;28;20487;-49
2021/05/14 11:11:58;;;;;;;1.23;0.50;;;20.90;46.80;;;;;;5008876;28;20464;-49
2021/05/14 11:14:39;;;;;;;2.63;0.50;;;20.70;47.40;;;;;;5012825;28;20980;-49
2021/05/14 11:17:14;;;;;;;0.50;0.40;;;20.50;48.10;;;;;;5011695;28;21019;-49
2021/05/14 11:19:46;;;;;;;0.50;0.47;;;20.40;47.60;;;;;;5011195;28;20525;-48
2021/05/14 11:22:15;;;;;;;1.43;0.60;;;20.50;49.50;;;;;;5012412;28;20455;-49
2021/05/14 11:24:52;;;;;;;2.00;0.60;;;20.60;49.10;;;;;;5009440;28;20472;-49
2021/05/14 11:27:29;;;;;;;2.93;0.50;;;20.60;48.20;;;;;;5011008;28;20611;-49
2021/05/14 11:30:03;;;;;;;0.70;0.70;;;20.50;48.90;;;;;;5007845;28;20464;-49
2021/05/14 11:32:45;;;;;;;0.90;0.50;;;20.50;48.40;;;;;;5009415;28;20455;-49
2021/05/14 11:35:16;;;;;;;2.70;0.80;;;20.40;49.00;;;;;;5017162;28;20510;-49
2021/05/14 11:37:50;;;;;;;0.97;0.53;;;20.30;50.90;;;;;;5008098;28;21040;-49
2021/05/14 11:40:20;;;;;;;2.30;0.83;;;20.10;51.30;;;;;;5009455;28;20455;-49
2021/05/14 11:42:50;;;;;;;1.73;0.93;;;19.90;50.90;;;;;;5006799;28;20555;-48
2021/05/14 11:45:31;;;;;;;0.90;0.67;;;19.80;50.30;;;;;;5008999;28;20866;-48
2021/05/14 11:47:59;;;;;;;1.00;0.77;;;19.70;50.00;;;;;;5010141;28;20489;-48
2021/05/14 11:50:29;;;;;;;1.83;0.60;;;19.60;50.40;;;;;;5011773;28;20457;-48
2021/05/14 11:52:57;;;;;;;1.10;0.77;;;19.50;50.10;;;;;;5011367;28;20551;-48
2021/05/14 11:55:25;;;;;;;4.03;0.80;;;19.40;50.30;;;;;;5011524;28;20499;-48
2021/05/14 11:57:59;;;;;;;1.50;0.70;;;19.30;51.20;;;;;;5007182;28;20551;-48
2021/05/14 12:00:28;;;;;;;1.10;1.00;;;19.20;51.80;;;;;;5007570;28;20532;-49
2021/05/14 12:03:04;;;;;;;0.67;0.57;;;19.10;52.50;;;;;;5008389;28;20464;-47
2021/05/14 12:05:32;;;;;;;0.80;0.80;;;19.00;53.30;;;;;;5011777;28;21023;-49
2021/05/14 12:08:11;;;;;;;0.83;0.60;;;18.80;54.40;;;;;;5007011;28;20488;-49
2021/05/14 12:10:51;;;;;;;0.70;0.50;;;18.70;53.90;;;;;;5011548;28;20446;-49
2021/05/14 12:13:20;;;;;;;0.50;0.30;;;18.50;53.40;;;;;;5026868;28;20487;-50
2021/05/14 12:15:57;;;;;;;1.37;0.67;;;18.30;55.50;;;;;;5011198;28;20477;-48
2021/05/14 12:18:25;;;;;;;0.50;0.40;;;18.20;57.80;;;;;;5024146;28;20526;-48
2021/05/14 12:20:55;;;;;;;0.70;0.57;;;18.00;58.40;;;;;;5010090;28;20466;-48
2021/05/14 12:23:24;;;;;;;0.60;0.50;;;17.90;60.30;;;;;;5025133;28;20465;-48
2021/05/14 12:25:58;;;;;;;1.80;0.60;;;17.80;58.60;;;;;;5012779;28;20456;-47
2021/05/14 12:28:31;;;;;;;0.60;0.60;;;17.80;58.00;;;;;;5012770;28;20493;-48
2021/05/14 12:30:58;;;;;;;0.50;0.40;;;17.90;58.90;;;;;;5009618;28;21050;-49
2021/05/14 12:33:26;;;;;;;1.43;0.43;;;18.10;59.00;;;;;;5010960;28;20492;-49
2021/05/14 12:36:07;;;;;;;0.67;0.50;;;18.30;57.30;;;;;;5009205;28;20506;-49
2021/05/14 12:38:54;;;;;;;0.50;0.40;;;18.40;54.80;;;;;;5010634;28;20524;-49
2021/05/14 12:41:30;;;;;;;0.60;0.40;;;18.60;53.40;;;;;;5010653;28;20442;-49
2021/05/14 12:44:10;;;;;;;0.90;0.37;;;18.80;50.50;;;;;;5009298;28;20964;-49
2021/05/14 12:46:56;;;;;;;1.37;0.30;;;18.90;50.00;;;;;;5010032;28;20547;-49
2021/05/14 12:49:24;;;;;;;0.40;0.20;;;19.10;48.70;;;;;;5007773;28;20576;-49
2021/05/14 12:52:31;;;;;;;1.07;0.30;;;19.20;49.20;;;;;;5002774;28;20548;-49
2021/05/14 12:54:59;;;;;;;0.60;0.37;;;19.30;48.00;;;;;;5009729;28;20565;-49
2021/05/14 12:57:25;;;;;;;0.80;0.50;;;19.40;48.00;;;;;;5007295;28;20555;-49
2021/05/14 12:59:53;;;;;;;1.33;0.53;;;19.40;48.20;;;;;;5008922;28;20962;-49
2021/05/14 13:02:25;;;;;;;1.13;0.40;;;19.60;49.40;;;;;;5003058;28;20468;-49
2021/05/14 13:04:59;;;;;;;0.97;0.30;;;19.70;48.80;;;;;;5003491;28;20472;-49